ESOK/KSD METAR and TAF weather

Enter ICAO airport designator
Station Type Date Time Source
ESOK METAR 2018/07/21 13:20 UTC NOAA

ESOK 211320Z AUTO 16013KT 9999 NCD 26/09 Q1007


Station Type Date Time Source
ESOK Decoded METAR 2018/07/21 13:20 UTC NOAA

Karlstad , Sweden (ESOK) 59-26-41N 013-20-15E
Jul 21, 2018 - 09:20 AM EDT / 2018.07.21 1320 UTC
Wind: from the SSE (160 degrees) at 15 MPH (13 KT):0
Visibility: greater than 7 mile(s):0
Temperature: 78 F (26 C)
Dew Point: 48 F (9 C)
Relative Humidity: 34%
Pressure (altimeter): 29.74 in. Hg (1007 hPa)
ob: ESOK 211320Z AUTO 16013KT 9999 NCD 26/09 Q1007
cycle: 13

Station Type Date Time Source
ESOK TAF 2017/05/22 06:33 UTC NOAA

TAF ESOK 220530Z 2206/2224 28006KT CAVOK


Example: see airport list